Sunny Valley, OR

12:16 AM PDT on October 24, 2014 (GMT -0700)
wolf creek | Change Station
CLOSE
Current Station
Personal Weather Station
Location: Wolf Creek, OR
Elevation: 1503 ft
Nearby Weather Stations

Elev 1503 ft 42.71 °N, 123.37 °W | Updated 1 second ago

Overcast
Overcast
53.1 °F
Feels Like 53.1 °F
N
0.0
Wind Variable Wind from NW
Gusts 0.0 mph

Today
High -- | Low -- °F
--% Chance of Precip.
Yesterday
High -- | Low -- °F
Precip. -- in
7:37 AM 6:17 PM
New Moon, 0% visible
Pressure 30.01 in
Visibility 10.0 miles
Clouds Few 6500 ft
Mostly Cloudy 9500 ft
Overcast 11000 ft
Dew Point 52 °F
Humidity 96%
Rainfall 0.00 in
Snow Depth Not available.
UV 0 out of 12
Pollen .40 out of 12
Air Quality Not available.
Flu Activity Sporadic
METAR KMFR 240653Z AUTO 36004KT 10SM FEW065 BKN095 OVC110 13/11 A3001 RMK AO2 SLP161 T01280111

More Conditions Fewer Conditions

Pressure 30.01 in
Visibility 10.0 miles
Clouds Few 6500 ft
Mostly Cloudy 9500 ft
Overcast 11000 ft
Dew Point 52 °F
Humidity 96%
Rainfall 0.00 in
Snow Depth Not available.
UV 0 out of 12
Pollen .40 out of 12
Air Quality Not available.
Flu Activity Sporadic
METAR KMFR 240653Z AUTO 36004KT 10SM FEW065 BKN095 OVC110 13/11 A3001 RMK AO2 SLP161 T01280111

More Conditions Fewer Conditions

10-Day Weather Forecast

Almanac

Astronomy

Oct. 24, 2014 Rise Set
Actual Time 7:37 AM PDT 6:17 PM PDT
Civil Twilight 7:08 AM PDT 6:45 PM PDT
Nautical Twilight 6:35 AM PDT 7:18 PM PDT
Astronomical Twilight 6:03 AM PDT 7:51 PM PDT
Moon 8:23 AM PDT 6:59 PM PDT
Length of Visible Light 11h 37m
Length of Day
10h 39m
Tomorrow will be 2m 42s shorter.
New Moon, 0% of the Moon is Illuminated
Today
New Moon
Oct 30
First Quarter
Nov 6
Full
Nov 14
Last Quarter
Nov 22
New

Today's Extremes

State Highs State Lows

Community

WunderPhotos

Upload Photos

1,764,510 photos uploaded!

WunderBlogs® & News

Nearby

Snow Depth

Station Depth Elevation
Bigelow Camp 0 in 5120 ft
King Mountain 0 in 4000 ft
Big Red Mountain 0 in 6250 ft
Fish Lake 0 in 4665 ft
Billie Creek Divide 0 in 5300 ft

Earthquake Activity

City Distance Mag. Time & Date
Crescent City, California 106 miles 2.6 1:22 AM PDT
2014-10-21
Minimum magnitude displayed is 2.5.

Coastal Water Temperatures

Place Temperature
No Stations Reporting

Nearby Weather Stations